Tiempo atmosférico en la estación meteorológica de Hierro Aeropuerto, Santa Cruz de Tenerife (32 m.)



Fecha
DESCASC
Temp. máxima en grados centígrados (hora)
DESCASC
Temp. mínima en grados centígrados (hora)
DESCASC
Temp. media en grados centígrados
DESCASC
Racha de viento máxima en m/sg (hora)
DESCASC
Velocidad máxima media en intervalos de 10 minutos(hora)
DESCASC
Precipitaciones diarias en mm
DESCASC
Precipitaciones de 00:00 a 06:00 en mm
DESCASC
Precipitaciones de 06:00 a 12:00 en mm
DESCASC
Precipitaciones de 12:00 a 18:00 en mm
DESCASC
Precipitaciones de 18:00 a 24:00 en mm
DESCASC
29-10-2020 24 (10:50) 21.4 (02:20) 22.7 11.67 (20:10) 9.72 (20:10) 0 0 0 0 0
28-10-2020 24 (10:40) 21.3 (03:10) 22.6 11.67 (06:40) 9.72 (06:40) 0 0 0 0 0
27-10-2020 23.9 (10:50) 21.7 (00:00) 22.8 11.39 (20:50) 9.72 (21:30) 0 0 0 0 0
26-10-2020 23.3 (11:30) 21.5 (00:00) 22.4 13.33 (11:10) 10.83 (21:10) 0 0 0 0 0
25-10-2020 -- (--) -- (--) -- -- (--) -- (--) -- -- -- 0 0
24-10-2020 -- (--) -- (--) -- -- (--) -- (--) -- 0 0 0 --
23-10-2020 23.2 (12:20) 21.3 (00:00) 22.3 14.44 (22:30) 11.11 (22:30) 0 0 0 0 0
22-10-2020 23.8 (13:00) 19 (00:00) 21.4 12.78 (05:10) 9.72 (05:10) 2.2 0 2.2 0 0
21-10-2020 23.2 (10:30) 19.7 (00:00) 21.5 14.44 (12:20) 8.61 (12:20) 1.8 0 0.2 1.6 0
20-10-2020 30.3 (07:40) 22.4 (00:00) 26.3 23.33 (13:50) 10.83 (13:50) 4.2 0 0 4.2 0
19-10-2020 27.8 (12:20) 21.9 (00:00) 24.8 10.28 (23:30) 8.06 (23:30) 0 0 0 0 0
18-10-2020 26.1 (14:00) 21.6 (00:00) 23.9 13.33 (12:30) 9.44 (12:20) 0 0 0 0 0
17-10-2020 25.8 (14:10) 20.6 (00:00) 23.2 6.11 (13:30) 4.44 (19:30) 0 0 0 0 0
16-10-2020 25.4 (14:40) 21.3 (00:00) 23.3 8.89 (02:50) 6.67 (02:50) 0 0 0 0 0
15-10-2020 25.6 (12:40) 22.2 (00:00) 23.9 10.28 (01:50) 8.33 (11:40) 0 0 0 0 0
14-10-2020 29 (11:10) 22.5 (00:00) 25.8 13.33 (03:50) 9.17 (04:40) 0 0 0 0 0
13-10-2020 31.1 (16:20) 22.4 (00:00) 26.8 13.89 (08:00) 9.44 (08:00) 0 0 0 0 0
12-10-2020 25.7 (14:20) 22.5 (00:00) 24.1 13.33 (03:00) 9.44 (02:50) 0 0 0 0 0
11-10-2020 25.1 (12:30) 22.6 (00:00) 23.9 13.89 (22:20) 9.44 (08:50) 0 0 0 0 0
10-10-2020 25.5 (14:20) 22.6 (00:00) 24.1 11.67 (02:10) 9.44 (06:10) 0 0 0 0 0
09-10-2020 25.9 (13:20) 22.9 (00:00) 24.4 11.67 (21:50) 9.17 (22:00) 0 0 0 0 0
08-10-2020 25.3 (13:40) 22.3 (00:00) 23.8 10.28 (01:10) 7.78 (22:40) 0 0 0 0 0
07-10-2020 26.1 (13:50) 22.7 (00:00) 24.4 8.33 (23:50) 6.11 (23:50) 0 0 0 0 0
06-10-2020 24.1 (14:20) 21.4 (00:00) 22.8 11.67 (08:00) 8.89 (07:50) 2 0 2 0 0
05-10-2020 26.2 (14:20) 22 (00:00) 24.1 12.5 (00:10) 8.61 (00:10) 0.3 0.1 0 0 0.2
04-10-2020 25.1 (13:40) 21.7 (00:00) 23.4 13.33 (05:00) 11.67 (05:00) 0.1 0 0.1 0 0
03-10-2020 25.3 (13:10) 21.5 (00:00) 23.4 13.89 (17:50) 11.67 (17:50) 0.4 0 0 0.3 0.1
02-10-2020 25.2 (15:10) 21.9 (00:00) 23.6 13.33 (11:00) 10.83 (22:00) 0 0 0 0 0
01-10-2020 25.4 (13:10) 22.5 (07:40) 23.9 12.5 (22:30) 9.72 (05:10) 0 0 0 0 0

Gráficas

Temp. máximas Temp. mínimas Temp. medias Precipitaciones Rachas de viento máximas Velocidades máximas media en intervalos de 10 minutos

Datos horarios

Fecha y hora oficial Temperatura (ºC) Velocidad del viento (km/h) Dirección del viento Racha (km/h) Dirección de racha Precipitación (mm) Presión (hPa) Tendencia (hPa) Humedad (%)
2020-10-30 23:00:00 22.2 18 Noroeste 28 Noroeste 0 1016.4 0.9 79
2020-10-30 22:00:00 22.4 21 Norte 28 Norte 0 1016.5 1.5 80
2020-10-30 21:00:00 22.5 21 Norte 30 Noroeste 0 1016.1 1.3 79
2020-10-30 20:00:00 22.4 23 Norte 33 Norte 0 1015.5 0.9 80
2020-10-30 19:00:00 22.6 23 Norte 30 Norte 0 1015 0.6 80
2020-10-30 18:00:00 22.7 23 Norte 32 Norte 0 1014.8 0.3 76
2020-10-30 17:00:00 22.9 22 Norte 33 Norte 0 1014.6 -0.5 76
2020-10-30 16:00:00 23.3 23 Norte 32 Norte 0 1014.4 -1.4 74
2020-10-30 15:00:00 23.5 23 Norte 33 Norte 0 1014.5 -1.9 72
2020-10-30 14:00:00 23.6 23 Norte 32 Norte 0 1015.1 -1.6 71
2020-10-30 13:00:00 23.6 24 Norte 33 Norte 0 1015.8 -0.8 71
2020-10-30 12:00:00 23.7 27 Norte 33 Norte 0 1016.4 0.1 72
2020-10-30 11:00:00 23.5 25 Norte 33 Norte 0 1016.7 -- 71
2020-10-30 10:00:00 22.7 26 Norte 33 Norte 0 1016.6 -- 75
2020-10-30 09:00:00 22.4 28 Norte 35 Norte 0 1016.3 -- 76
2020-10-30 08:00:00 22.1 26 Norte 35 Norte 0 1015.8 -- 76
2020-10-30 07:00:00 22 31 Norte 39 Norte 0 1015.2 -- 75
2020-10-30 06:00:00 21.9 28 Norte 37 Norte 0 1015.1 -- 75
2020-10-30 05:00:00 22 31 Norte 39 Norte 0 1014.9 -- 76
2020-10-30 04:00:00 22 27 Norte 33 Norte 0 1014.9 -- 76
2020-10-30 03:00:00 22 25 Norte 33 Norte 0 1015.4 -- 74
2020-10-30 02:00:00 21.9 26 Norte 33 Norte 0 1015.5 -- 73
2020-10-30 01:00:00 21.9 29 Norte 42 Nordeste 0 1015.7 -- 72
2020-10-30 00:00:00 22.1 31 Norte 39 Norte 0 1015.9 -- 70
2020-10-29 23:00:00 22.1 31 Norte 37 Norte 0 1016.2 -- 70
2020-10-29 22:00:00 22.1 24 Norte 32 Norte 0 1016.4 -- 70
2020-10-29 21:00:00 22.3 31 Norte 42 Norte 0 1016.2 -- 70
2020-10-29 20:00:00 22.2 30 Norte 39 Norte 0 1015.8 -- 70
2020-10-29 19:00:00 22.1 33 Norte 41 Norte 0 1015.4 -- 70
2020-10-29 18:00:00 22.3 29 Norte 37 Norte 0 1015.4 -- 67
2020-10-29 17:00:00 22.1 27 Norte 35 Norte 0 1015.4 -- 72
2020-10-29 16:00:00 22.4 24 Norte 35 Norte 0 1015.3 -- 71
2020-10-29 15:00:00 22.9 21 Norte 30 Norte 0 1015.6 -- 67
2020-10-29 14:00:00 22.8 24 Norte 33 Norte 0 1016.1 -- 69
2020-10-29 13:00:00 22.7 25 Norte 33 Norte 0 1017 -- 71
2020-10-29 12:00:00 22.6 24 Norte 35 Norte 0 1017.8 -- 67
2020-10-29 11:00:00 23.1 24 Norte 33 Norte 0 1018.2 -- 66
2020-10-29 10:00:00 22.4 24 Norte 39 Norte 0 1018 -- 65
2020-10-29 09:00:00 22.1 31 Norte 37 Norte 0 1017.5 -- 69
2020-10-29 08:00:00 22 28 Norte 37 Norte 0 1017 -- 66
2020-10-29 07:00:00 21.8 26 Norte 39 Norte 0 1016.5 -- 69
2020-10-29 06:00:00 21.9 24 Norte 30 Norte 0 1016.3 -- 67
2020-10-29 05:00:00 21.8 27 Norte 33 Norte 0 1016.2 -- 72
2020-10-29 04:00:00 22 26 Norte 35 Norte 0 1016.3 -- 63
2020-10-29 03:00:00 21.9 21 Norte 33 Norte 0 1016.7 -- 66
2020-10-29 02:00:00 21.9 24 Norte 33 Norte 0 1016.9 -- 66
2020-10-29 01:00:00 21.9 27 Norte 37 Norte 0 1017.4 -- 65
2020-10-29 00:00:00 22.1 26 Norte 37 Nordeste 0 1017.6 -- 65
2020-10-28 23:00:00 21.7 31 Norte 39 Norte 0 1017.9 -- 73
2020-10-28 22:00:00 21.9 24 Norte 35 Norte 0 1018.3 -- 67
2020-10-28 21:00:00 22 29 Norte 42 Norte 0 1017.8 -- 62
2020-10-28 20:00:00 21.8 29 Norte 39 Norte 0 1017.5 -- 73
2020-10-28 19:00:00 21.9 27 Norte 35 Norte 0 1017.2 -- 67
2020-10-28 18:00:00 22.3 27 Norte 39 Nordeste 0 1017 -- 63
2020-10-28 17:00:00 22.3 28 Norte 41 Norte 0 1016.5 -- 64
2020-10-28 16:00:00 22.8 24 Norte 33 Norte 0 1016.5 -- 60
2020-10-28 15:00:00 22.9 27 Norte 37 Nordeste 0 1016.7 -- 60
2020-10-28 14:00:00 23.1 26 Norte 32 Norte 0 1017.4 -- 62
2020-10-28 13:00:00 23.4 23 Norte 32 Nordeste 0 1018.3 -- 60
2020-10-28 12:00:00 23.2 27 Norte 37 Norte 0 1018.8 -- 59
2020-10-28 11:00:00 23.5 21 Norte 30 Norte 0 1019 -- 62
2020-10-28 10:00:00 22.6 28 Norte 35 Norte 0 1018.8 -- 59
2020-10-28 09:00:00 22.5 24 Nordeste 32 Norte 0 1018.3 -- 63
2020-10-28 08:00:00 22 27 Norte 35 Norte 0 1017.4 -- 70
2020-10-28 07:00:00 21.9 29 Nordeste 42 Nordeste 0 1016.8 -- 68
2020-10-28 06:00:00 22 31 Norte 41 Norte 0 1016.3 -- 66
2020-10-28 05:00:00 21.9 32 Norte 39 Nordeste 0 1016.3 -- 72
2020-10-28 04:00:00 21.8 22 Norte 30 Norte 0 1016.5 -- 71
2020-10-28 03:00:00 21.6 25 Nordeste 33 Norte 0 1016.8 -- 78
2020-10-28 02:00:00 21.9 22 Norte 30 Norte 0 1017.5 -- 75
2020-10-28 01:00:00 21.7 25 Norte 33 Norte 0 1017.9 -- 78
2020-10-28 00:00:00 22 21 Norte 32 Norte 0 1018.4 -- 72
2020-10-27 23:00:00 22 25 Norte 33 Norte 0 1018.8 -- 73
2020-10-27 22:00:00 22 26 Norte 41 Norte 0 1018.7 -- 73
2020-10-27 21:00:00 22.2 31 Norte 41 Nordeste 0 1018.1 -- 74
2020-10-27 20:00:00 22.2 20 Norte 30 Norte 0 1018.2 -- 74
2020-10-27 19:00:00 22.3 19 Norte 30 Nordeste 0 1017.5 -- 71
2020-10-27 18:00:00 22.5 23 Norte 35 Norte 0 1017 -- 69
2020-10-27 17:00:00 22.8 27 Norte 37 Norte 0 1016.6 -- 69
2020-10-27 16:00:00 22.9 27 Norte 35 Norte 0 1016.4 -- 70
2020-10-27 15:00:00 23 27 Norte 33 Norte 0 1016.6 -- 72
2020-10-27 14:00:00 23.1 15 Nordeste 24 Norte 0 1017.4 -- 73
2020-10-27 13:00:00 23.4 9 Nordeste 21 Nordeste 0 1018.2 -- 70
2020-10-27 12:00:00 23.3 17 Nordeste 35 Norte 0 1019 -- 71
2020-10-27 11:00:00 23.8 24 Norte 30 Norte 0 1019.3 -- 72
2020-10-27 10:00:00 23.1 25 Norte 30 Norte 0 1019.3 -- 72
2020-10-27 09:00:00 22.9 18 Norte 30 Norte 0 1019 -- 74
2020-10-27 08:00:00 22.2 24 Norte 37 Norte 0 1018.3 -- 76
2020-10-27 07:00:00 22 27 Norte 39 Norte 0 1017.8 -- 78
2020-10-27 06:00:00 22 28 Norte 35 Norte 0 1017.5 -- 77
2020-10-27 05:00:00 22 28 Norte 35 Norte 0 1017.4 -- 76
2020-10-27 04:00:00 22 24 Norte 30 Norte 0 1017.6 -- 77
2020-10-27 03:00:00 22.1 23 Norte 30 Norte 0 1018.2 -- 77
2020-10-27 02:00:00 22.1 19 Norte 32 Norte 0 1018.5 -- 79
2020-10-27 01:00:00 22.1 28 Norte 35 Norte 0 1018.8 -- 76
2020-10-27 00:00:00 22.2 20 Norte 32 Norte 0 1019.1 -- 74
2020-10-26 23:00:00 22.3 23 Norte 42 Nordeste 0 1019.6 -- 72
2020-10-26 22:00:00 22.2 32 Nordeste 48 Nordeste 0 1019.6 -- 71
2020-10-26 21:00:00 22.3 36 Nordeste 48 Nordeste 0 1019.1 -- 73
2020-10-26 20:00:00 22.2 33 Norte 45 Nordeste 0 1018.7 -- 72
2020-10-26 19:00:00 22.2 31 Norte 42 Norte 0 1018.4 -- 72
2020-10-26 18:00:00 22.1 30 Norte 42 Norte 0 1018.2 -- 71
2020-10-26 17:00:00 22.2 31 Norte 41 Norte 0 1018.1 -- 71
2020-10-26 16:00:00 22.1 34 Norte 41 Nordeste 0 1017.9 -- 72
2020-10-26 15:00:00 22.4 30 Nordeste 41 Nordeste 0 1018.3 -- 69
2020-10-26 14:00:00 22.5 31 Norte 39 Norte 0 1018.7 -- 71
2020-10-26 13:00:00 23 30 Norte 42 Norte 0 1019.5 -- 65
2020-10-26 12:00:00 23.3 32 Norte 48 Norte 0 1020.2 -- 65
2020-10-26 11:00:00 22.9 35 Norte 45 Norte 0 1020.4 -- 67
2020-10-26 10:00:00 22.8 33 Norte 45 Norte 0 1020.5 -- 65
2020-10-26 09:00:00 22.4 32 Norte 46 Norte 0 1020 -- 67
2020-10-26 08:00:00 21.9 34 Norte 45 Norte 0 1019.4 -- 71
2020-10-26 07:00:00 21.9 33 Norte 45 Norte 0 1018.8 -- 71
2020-10-26 06:00:00 21.9 32 Norte 42 Norte 0 1018.7 -- 70
2020-10-26 05:00:00 21.9 27 Norte 42 Norte 0 1018.7 -- 71
2020-10-26 04:00:00 21.8 32 Norte 45 Norte 0 1018.7 -- 71
2020-10-26 03:00:00 21.8 31 Norte 45 Norte 0 1019 -- 70
2020-10-26 02:00:00 21.9 34 Norte 45 Norte 0 1019.3 -- 69
2020-10-26 01:00:00 22 30 Norte 41 Norte 0 1020 -- 70
2020-10-26 00:00:00 22.1 33 Nordeste 45 Nordeste 0 1020.6 -- 72
2020-10-25 23:00:00 22 30 Norte 39 Norte 0 1020.9 -- 72
2020-10-25 22:00:00 21.9 30 Norte 46 Norte 0 1020.8 -- 70
2020-10-25 21:00:00 22 37 Norte 45 Norte 0 1020.4 -- 70
2020-10-25 20:00:00 22 29 Norte 42 Norte 0 1020.6 -- 71
2020-10-25 19:00:00 22 35 Norte 45 Norte 0 1019.5 -- 71
2020-10-25 18:00:00 22.2 31 Nordeste 42 Norte 0 1019.6 -- 71
2020-10-25 17:00:00 22.4 32 Norte 41 Norte 0 1019.3 -- 72
2020-10-25 16:00:00 22.4 27 Norte 39 Norte 0 1019.4 -- 70
2020-10-25 15:00:00 22.3 36 Norte 46 Norte 0 1019.3 -- 70
2020-10-25 14:00:00 22.6 36 Norte 46 Norte 0 1019.3 -- 70
2020-10-25 13:00:00 23.1 28 Norte 37 Norte 0 1020.3 -- 67
2020-10-25 12:00:00 23 28 Norte 37 Norte 0 1021 -- 65
2020-10-25 11:00:00 23 30 Norte 45 Norte 0 1021.4 -- 67
2020-10-25 10:00:00 22.6 33 Norte 45 Nordeste 0 1021 -- 71
2020-10-25 09:00:00 22.3 32 Norte -- -- -- 1020.6 -- 75
2020-10-25 08:00:00 -- -- -- -- -- -- -- -- --
2020-10-25 07:00:00 -- -- -- -- -- -- -- -- --
2020-10-25 06:00:00 -- -- -- -- -- -- -- -- --
2020-10-25 05:00:00 -- -- -- -- -- -- -- -- --
2020-10-25 04:00:00 -- -- -- -- -- -- -- -- --
2020-10-25 03:00:00 -- -- -- -- -- -- -- -- --
2020-10-25 02:00:00 -- -- -- -- -- -- -- -- --
2020-10-25 01:00:00 -- -- -- -- -- -- -- -- --
2020-10-25 00:00:00 -- -- -- -- -- -- -- -- --
2020-10-24 23:00:00 -- -- -- -- -- -- -- -- --
2020-10-24 22:00:00 -- -- -- -- -- -- -- -- --
2020-10-24 21:00:00 -- -- -- -- -- -- -- -- --
2020-10-24 20:00:00 22.5 28 Nordeste 33 Nordeste 0 1020.3 -- 71
2020-10-24 19:00:00 22.5 29 Nordeste 45 Nordeste 0 1020 -- 68
2020-10-24 18:00:00 22.8 31 Nordeste 45 Nordeste 0 1020.2 -- 63
2020-10-24 17:00:00 22.6 30 Nordeste 39 Nordeste 0 1020.3 -- 66
2020-10-24 16:00:00 22.8 27 Nordeste 35 Nordeste 0 1020.1 -- 67
2020-10-24 15:00:00 23.1 27 Nordeste 41 Nordeste 0 1020.5 -- 63
2020-10-24 14:00:00 23.9 18 Norte 37 Nordeste 0 1021.2 -- 57
2020-10-24 13:00:00 23.4 24 Nordeste 41 Nordeste 0 1021.8 -- 59
2020-10-24 12:00:00 23.1 29 Nordeste 42 Nordeste 0 1022.6 -- 62
2020-10-24 11:00:00 22.9 25 Nordeste 45 Nordeste 0 1022.3 -- 64
2020-10-24 10:00:00 22.7 33 Nordeste 42 Nordeste 0 1021.5 -- 63
2020-10-24 09:00:00 22.3 31 Nordeste 41 Norte 0 1021.1 -- 65
2020-10-24 08:00:00 22.1 32 Norte 45 Nordeste 0 1020.6 -- 66
2020-10-24 07:00:00 21.9 30 Nordeste 45 Nordeste 0 1020.4 -- 68
2020-10-24 06:00:00 22 27 Nordeste 41 Nordeste 0 1020.4 -- 70
2020-10-24 05:00:00 22 31 Norte 45 Nordeste 0 1020.3 -- 69
2020-10-24 04:00:00 21.9 30 Norte 39 Nordeste 0 1020.5 -- 68
2020-10-24 03:00:00 21.9 32 Nordeste 45 Nordeste 0 1020.9 -- 69
2020-10-24 02:00:00 22.1 30 Nordeste 46 Nordeste 0 1021.1 -- 68
2020-10-24 01:00:00 22.1 36 Nordeste 48 Nordeste 0 1021.5 -- 67
2020-10-24 00:00:00 22.2 35 Nordeste 52 Nordeste 0 1021.6 -- 63
2020-10-23 23:00:00 22.3 38 Nordeste 52 Nordeste 0 1021.2 -- 66
2020-10-23 22:00:00 22.2 35 Nordeste 46 Nordeste 0 1020.8 -- 68
2020-10-23 21:00:00 22.1 33 Nordeste 42 Nordeste 0 1020.3 -- 67
2020-10-23 20:00:00 22.2 33 Nordeste 41 Nordeste 0 1020 -- 62
2020-10-23 19:00:00 22.5 30 Nordeste 42 Nordeste 0 1019.8 -- 61
2020-10-23 18:00:00 22.6 26 Nordeste 42 Nordeste 0 1019.4 -- 62
2020-10-23 17:00:00 22.4 32 Nordeste 41 Nordeste 0 1019.5 -- 60
2020-10-23 16:00:00 22.4 29 Nordeste 37 Nordeste 0 1019.7 -- 62
2020-10-23 15:00:00 22.6 24 Nordeste 35 Nordeste 0 1020.1 -- 58
2020-10-23 14:00:00 23 26 Nordeste 39 Nordeste 0 1020.5 -- 59
2020-10-23 13:00:00 22.6 24 Nordeste 33 Nordeste 0 1021.1 -- 62
2020-10-23 12:00:00 22.9 27 Nordeste 37 Nordeste 0 1021.3 -- 60
2020-10-23 11:00:00 22.5 24 Nordeste 35 Nordeste 0 1020.9 -- 62
2020-10-23 10:00:00 22.4 24 Nordeste 33 Norte 0 1020.3 -- 63
2020-10-23 09:00:00 21.9 26 Norte 37 Norte 0 1019.5 -- 66
2020-10-23 08:00:00 21.6 22 Norte 32 Norte 0 1019 -- 63
2020-10-23 07:00:00 21.5 22 Norte 30 Norte 0 1018.5 -- 68
2020-10-23 06:00:00 21.4 18 Norte 28 Norte 0 1017.9 -- 64
2020-10-23 05:00:00 21.5 20 Norte 28 Norte 0 1018 -- 64
2020-10-23 04:00:00 21.6 20 Norte 28 Norte 0 1018 -- 62
2020-10-23 03:00:00 21.6 22 Norte 28 Norte 0 1018.1 -- 66
2020-10-23 02:00:00 21.8 22 Norte 30 Norte 0 1018 -- 64
2020-10-23 01:00:00 21.8 21 Norte 30 Nordeste 0 1018.1 -- 67
2020-10-23 00:00:00 21.8 21 Norte 30 Norte 0 1018.1 -- 63
2020-10-22 23:00:00 21.8 22 Norte 32 Norte 0 1017.9 -- 64
2020-10-22 22:00:00 21.9 25 Norte 33 Norte 0 1017.5 -- 64
2020-10-22 21:00:00 21.9 23 Norte 32 Norte 0 1016.9 -- 64
2020-10-22 20:00:00 21.9 24 Norte 33 Norte 0 1016.1 -- 65
2020-10-22 19:00:00 22.1 26 Norte 33 Norte 0 1015.6 -- 66
2020-10-22 18:00:00 22.3 23 Norte 33 Norte 0 1015.3 -- 61
2020-10-22 17:00:00 22.3 26 Norte 33 Norte 0 1015 -- 64
2020-10-22 16:00:00 22.8 20 Norte 28 Norte 0 1014.8 -- 61
2020-10-22 15:00:00 22.9 22 Norte 30 Norte 0 1015 -- 62
2020-10-22 14:00:00 22.9 14 Norte 41 Noroeste 0 1015.4 -- 60
2020-10-22 13:00:00 23.5 17 Norte 32 Norte 0 1015.4 -- 60
2020-10-22 12:00:00 22.7 23 Norte 30 Norte 0 1015.6 -- 59
2020-10-22 11:00:00 22.2 24 Norte 42 Norte 0 1015.4 -- 62
2020-10-22 10:00:00 21.5 27 Noroeste 41 Norte 0.1 1014.5 -- 72
2020-10-22 09:00:00 20.8 20 Oeste 33 Noroeste 0 1013.9 -- 69
2020-10-22 08:00:00 20.5 22 Oeste 41 Noroeste 2.1 1013.4 -- 70
2020-10-22 07:00:00 20.9 21 Oeste 39 Noroeste 0 1012.9 -- 69
2020-10-22 06:00:00 21 19 Noroeste 46 Norte 0 1012.8 -- 66
2020-10-22 05:00:00 21.4 22 Noroeste 35 Noroeste 0 1012.6 -- 66
2020-10-22 04:00:00 21 21 Noroeste 33 Noroeste 0 1012.8 -- 69
2020-10-22 03:00:00 21.4 19 Noroeste 33 Noroeste 0 1012.9 -- 65
2020-10-22 02:00:00 21.3 13 Noroeste 33 Noroeste 0 1013.2 -- 64
2020-10-22 01:00:00 21.6 18 Noroeste 32 Noroeste 0 1013.3 -- 65
2020-10-22 00:00:00 21.8 23 Noroeste 37 Noroeste 0 1013.6 -- 65
2020-10-21 23:00:00 21.9 21 Noroeste 35 Noroeste 0 1013.5 -- 63
2020-10-21 22:00:00 21.9 19 Noroeste 35 Noroeste 0 1013.1 -- 66
2020-10-21 21:00:00 22 21 Noroeste 33 Noroeste 0 1012.6 -- 67
2020-10-21 20:00:00 22 17 Noroeste 42 Noroeste 0 1012.2 -- 69
2020-10-21 19:00:00 22.1 24 Noroeste 42 Noroeste 0 1011.6 -- 66
2020-10-21 18:00:00 22.3 23 Noroeste 45 Noroeste 0 1011.6 -- 67
2020-10-21 17:00:00 22.4 19 Noroeste 45 Noroeste 0 1011.6 -- 68
2020-10-21 16:00:00 22.4 26 Noroeste 35 Noroeste 0 1011.3 -- 74
2020-10-21 15:00:00 22.2 19 Oeste 48 Noroeste 0 1011.9 -- 70
2020-10-21 14:00:00 22.3 22 Noroeste 41 Noroeste 0 1012.4 -- 73
2020-10-21 13:00:00 21.4 17 Oeste 52 Noroeste 1.6 1012.6 -- 77
2020-10-21 12:00:00 23.1 21 Noroeste 39 Oeste 0 1012.8 -- 70
2020-10-21 11:00:00 22 17 Oeste 37 Noroeste 0 1012.4 -- 76
2020-10-21 10:00:00 22.3 18 Noroeste 35 Oeste 0.2 1011.9 -- 73
2020-10-21 09:00:00 22.6 19 Oeste 39 Oeste 0 1011.6 -- 66
2020-10-21 08:00:00 22.3 14 Oeste 41 Oeste 0 1011.2 -- 68
2020-10-21 07:00:00 22.6 14 Noroeste 30 Norte 0 1011.3 -- 70
2020-10-21 06:00:00 22.6 17 Oeste 37 Oeste 0 1011 -- 67
2020-10-21 05:00:00 22.6 14 Noroeste 37 Noroeste 0 1011.2 -- 68
2020-10-21 04:00:00 22.8 22 Oeste 35 Oeste 0 1011.4 -- 67
2020-10-21 03:00:00 22.7 19 Oeste 32 Oeste 0 1011.7 -- 67
2020-10-21 02:00:00 22.9 20 Oeste 33 Oeste 0 1011.9 -- 67
2020-10-21 01:00:00 22.8 15 Oeste 28 Oeste 0 1012.3 -- 68
2020-10-21 00:00:00 22.8 8 Noroeste 26 Noroeste 0 1012.7 -- 69
2020-10-20 23:00:00 23.2 14 Oeste 33 Noroeste 0 1013.1 -- 66
2020-10-20 22:00:00 23.1 16 Noroeste 33 Noroeste 0 1012.3 -- 69
2020-10-20 21:00:00 23.3 23 Noroeste 32 Noroeste 0 1011.8 -- 76
2020-10-20 20:00:00 23.6 21 Noroeste 42 Noroeste 0 1011 -- 73
2020-10-20 19:00:00 23.9 19 Noroeste 39 Noroeste 0 1010.8 -- 75
2020-10-20 18:00:00 23.8 23 Noroeste 42 Noroeste 0 1011 -- 79
2020-10-20 17:00:00 25.1 26 Noroeste 41 Noroeste 0 1010.7 -- 71
2020-10-20 16:00:00 25.2 24 Noroeste 42 Noroeste 0 1010.8 -- 69
2020-10-20 15:00:00 24.4 19 Noroeste 48 Noroeste 0 1011.4 -- 77
2020-10-20 14:00:00 23.4 19 Oeste 84 Noroeste 4.2 1011.7 -- 83
2020-10-20 13:00:00 27.2 20 Oeste 67 Sudoeste 0 1011.4 -- 68
2020-10-20 12:00:00 26.7 27 Oeste 67 Oeste 0 1011.6 -- 69
2020-10-20 11:00:00 27.2 32 Oeste 58 Oeste 0 1011.3 -- 60
2020-10-20 10:00:00 28 31 Oeste 61 Oeste 0 1010.9 -- 44
2020-10-20 09:00:00 29.3 29 Sudoeste 59 Oeste 0 1010.1 -- 36
2020-10-20 08:00:00 29.8 25 Oeste 52 Sudoeste 0 1009.3 -0.8 33
2020-10-20 07:00:00 28.9 21 Oeste 46 Sudoeste 0 1009.4 -- 37
2020-10-20 06:00:00 29.2 21 Oeste 42 Oeste 0 1009.7 -- 36
2020-10-20 05:00:00 24.9 4 Este 15 Este 0 1010.1 -1.3 65
2020-10-20 04:00:00 24.4 3 Oeste 28 Sur 0 1010.7 -0.7 63
2020-10-20 03:00:00 24.8 10 Sur 26 Sur 0 1010.9 -- 70
2020-10-20 02:00:00 24.6 14 Sur 30 Sur 0 1011.4 0.1 71
2020-10-20 01:00:00 24.3 21 Sur 35 Sur 0 1011.4 0 78
2020-10-20 00:00:00 24.3 27 Sur 37 Sur 0 1011.2 -- 80
2020-10-19 23:00:00 24.3 23 Sur 30 Sur 0 1011.3 -0.1 83
2020-10-19 22:00:00 25 14 Sur 18 Sur 0 1011.4 -0.1 79
2020-10-19 21:00:00 24.8 4 Sur 9 Sur 0 1011.5 -- 78
2020-10-19 20:00:00 24.6 0 Calma 5 Nordeste 0 1011.4 -- 80
2020-10-19 19:00:00 25.1 3 Noroeste 8 Norte 0 1011.5 -0.2 80
2020-10-19 18:00:00 25.3 5 Norte 11 Este 0 1011.6 -- 80
2020-10-19 17:00:00 25.5 9 Este 18 Este 0 1011.6 -- 73
2020-10-19 16:00:00 25.5 13 Este 24 Este 0 1011.7 -- 74
2020-10-19 15:00:00 25.5 15 Este 18 Sudeste 0 1012.3 -- 76
2020-10-19 14:00:00 25.3 6 Nordeste 15 Sudeste 0 1013.3 -- 77
2020-10-19 13:00:00 25.5 9 Este 28 Sudeste 0 1013.8 -- 75
2020-10-19 12:00:00 27.1 17 Sur 28 Sur 0 1013.7 -- 68
2020-10-19 11:00:00 25 19 Nordeste 26 Nordeste 0 1013.3 -- 78
2020-10-19 10:00:00 24.9 3 Sur 17 Este 0 1012.9 -- 75
2020-10-19 09:00:00 24.1 0 Calma 13 Noroeste 0 1012.2 -- 74
2020-10-19 08:00:00 23 8 Oeste 15 Oeste 0 1011.2 -- 73
2020-10-19 07:00:00 22.6 11 Sudoeste 15 Sudoeste 0 1010.7 -- 78
2020-10-19 06:00:00 23.1 7 Noroeste 15 Oeste 0 1010.8 -- 75
2020-10-19 05:00:00 22.5 9 Oeste 13 Oeste 0 1010.8 -- 75
2020-10-19 04:00:00 22.2 6 Oeste 8 Oeste 0 1011.3 -- 76
2020-10-19 03:00:00 22.4 3 Sudoeste 11 Sudoeste 0 1011.5 -- 75
2020-10-19 02:00:00 22.1 7 Sudoeste 13 Oeste 0 1012.1 -- 77
2020-10-19 01:00:00 22.4 4 Sur 11 Sudoeste 0 1012.7 -- 77
2020-10-19 00:00:00 23.2 13 Sur 24 Sur 0 1012.7 -- 74
2020-10-18 23:00:00 23.1 16 Sur 24 Sur 0 1012.5 -- 74
2020-10-18 22:00:00 22.9 18 Sur 26 Sur 0 1012.2 -- 75
2020-10-18 21:00:00 23 18 Sur 33 Sur 0 1011.4 -- 75
2020-10-18 20:00:00 23.1 23 Sur 42 Sur 0 1010.7 -- 74
2020-10-18 19:00:00 23.5 32 Sur 45 Sur 0 1010.6 -- 73
2020-10-18 18:00:00 24.4 30 Sur 48 Sur 0 1010.5 -- 69
2020-10-18 17:00:00 24.8 32 Sur 45 Sur 0 1010.4 -- 68
2020-10-18 16:00:00 25.1 31 Sur 46 Sur 0 1010.7 -- 66
2020-10-18 15:00:00 24.9 32 Sur 46 Sur 0 1010.7 -- 66
2020-10-18 14:00:00 25.3 29 Sur 48 Sur 0 1011.5 -- 65
2020-10-18 13:00:00 25.3 31 Sur 48 Sur 0 1011.8 -- 65
2020-10-18 12:00:00 24.6 28 Sur 41 Sur 0 1011.9 -- 68
2020-10-18 11:00:00 24.1 26 Sur 41 Sur 0 1012 -- 69
2020-10-18 10:00:00 23.5 26 Sur 37 Sur 0 1011.5 -- 72
2020-10-18 09:00:00 22.3 17 Sur 30 Sur 0 1010.9 -- 77
2020-10-18 08:00:00 21.9 20 Sur 28 Sur 0 1010.8 -- 78
2020-10-18 07:00:00 22.1 14 Sur 21 Sur 0 1010.8 -- 77
2020-10-18 06:00:00 22.1 16 Sur 24 Sur 0 1010.8 -- 74
2020-10-18 05:00:00 22.1 16 Sur 26 Sur 0 1010.9 -- 75
2020-10-18 04:00:00 21.8 13 Sudoeste 18 Sur 0 1011.4 -- 75
2020-10-18 03:00:00 21.9 15 Sur 24 Sur 0 1011.9 -- 76
2020-10-18 02:00:00 22.2 15 Sur 24 Sur 0 1012 -- 73
2020-10-18 01:00:00 22.3 18 Sur 24 Sur 0 1012.4 -- 74
2020-10-18 00:00:00 22 11 Sur 15 Sur 0 1012.8 -- 74
2020-10-17 23:00:00 21.6 11 Sudoeste 13 Sudoeste 0 1012.8 -- 73
2020-10-17 22:00:00 21.8 9 Sudoeste 15 Sur 0 1012.7 -- 71
2020-10-17 21:00:00 22.5 9 Sur 15 Sur 0 1012.2 -- 70
2020-10-17 20:00:00 22.6 12 Sur 22 Sudoeste 0 1011.8 -- 68
2020-10-17 19:00:00 23.2 13 Sur 21 Sur 0 1012 -- 68
2020-10-17 18:00:00 23.4 12 Sur 21 Sur 0 1012.2 -- 68
2020-10-17 17:00:00 23.2 13 Sudeste 21 Sudeste 0 1012.5 -- 71
2020-10-17 16:00:00 22.9 12 Sur 21 Sudeste 0 1012.8 -- 74
2020-10-17 15:00:00 23.9 13 Sudeste 21 Este 0 1013.4 -- 70
2020-10-17 14:00:00 25 13 Sudeste 22 Sudeste 0 1014 -- 64
2020-10-17 13:00:00 24.8 11 Este 21 Sudeste 0 1014.5 -- 65
2020-10-17 12:00:00 23.7 10 Este 15 Este 0 1015 -- 69
2020-10-17 11:00:00 23.2 7 Este 11 Este 0 1015 -- 70
2020-10-17 10:00:00 23.1 5 Este 9 Este 0 1014.6 -- 71
2020-10-17 09:00:00 22 5 Sudoeste 11 Sudoeste 0 1014.2 -- 74
2020-10-17 08:00:00 21.4 5 Sur 17 Sudoeste 0 1013.8 -- 75
2020-10-17 07:00:00 20.9 12 Sudoeste 15 Sudoeste 0 1013.5 -- 76
2020-10-17 06:00:00 20.9 11 Sudoeste 18 Sudoeste 0 1013.6 -- 74
2020-10-17 05:00:00 21.2 11 Sudoeste 17 Sudoeste 0 1013.9 -- 76
2020-10-17 04:00:00 20.8 8 Sur 15 Sudoeste 0 1014.2 -- 76
2020-10-17 03:00:00 21.2 9 Sudoeste 15 Sudoeste 0 1014.6 -- 74
2020-10-17 02:00:00 21.7 8 Sudoeste 13 Sudoeste 0 1015.5 -- 74
2020-10-17 01:00:00 21.7 8 Sudoeste 11 Sudoeste 0 1015.9 -- 77
2020-10-17 00:00:00 22.8 5 Nordeste 11 Este 0 1016.5 -- 78
2020-10-16 23:00:00 22.9 10 Nordeste 21 Norte 0 1016.3 -- 77
2020-10-16 22:00:00 23.1 17 Nordeste 22 Norte 0 1016 -- 77
2020-10-16 21:00:00 23.1 16 Norte 21 Norte 0 1015.9 -- 75
2020-10-16 20:00:00 23 16 Norte 21 Norte 0 1015.3 -- 74
2020-10-16 19:00:00 23.2 18 Norte 24 Norte 0 1015.2 -- 76
2020-10-16 18:00:00 23.4 16 Norte 21 Norte 0 1015.2 -- 73
2020-10-16 17:00:00 23.8 14 Norte 21 Norte 0 1015.2 -- 72
2020-10-16 16:00:00 24.3 14 Norte 21 Norte 0 1015.1 -- 70
2020-10-16 15:00:00 25.1 13 Norte 17 Norte 0 1015.4 -- 64
2020-10-16 14:00:00 24.4 12 Norte 18 Nordeste 0 1015.6 -- 67
2020-10-16 13:00:00 24.1 15 Nordeste 22 Nordeste 0 1016.3 -- 69
2020-10-16 12:00:00 24 17 Nordeste 22 Nordeste 0 1016.8 -- 71
2020-10-16 11:00:00 23.5 14 Nordeste 18 Nordeste 0 1016.7 -- 74
2020-10-16 10:00:00 23.3 0 Calma 21 Sur 0 1016.2 1.4 72
2020-10-16 09:00:00 22.3 6 Sur 17 Nordeste 0 1015.4 0.9 75
2020-10-16 08:00:00 21.3 5 Sur 11 Sudeste 0 1015 0.5 77
2020-10-16 07:00:00 22 5 Sur 18 Sudeste 0 1014.8 -- 77
2020-10-16 06:00:00 22.6 11 Sudeste 22 Este 0 1014.5 -- 77
2020-10-16 05:00:00 22.7 17 Sudeste 26 Sudeste 0 1014.5 -- 76
2020-10-16 04:00:00 22.8 23 Sudeste 32 Sudeste 0 1014.8 -- 77
2020-10-16 03:00:00 22.8 21 Sudeste 32 Sudeste 0 1015.2 -- 75
2020-10-16 02:00:00 23 6 Nordeste 26 Nordeste 0 1015.3 -- 81
2020-10-16 01:00:00 22.9 19 Nordeste 26 Norte 0 1015.7 -- 82
2020-10-16 00:00:00 23 19 Norte 30 Nordeste 0 1016 -- 78
2020-10-15 23:00:00 23.1 24 Norte 32 Nordeste 0 1015.6 -- 79
2020-10-15 22:00:00 23.1 9 Noroeste 13 Noroeste 0 1015.5 -- 76
2020-10-15 21:00:00 22.9 6 Noroeste 18 Nordeste 0 1014.9 -- 77
2020-10-15 20:00:00 23.1 15 Nordeste 21 Nordeste 0 1014.5 -- 82
2020-10-15 19:00:00 23.5 9 Sur 17 Sur 0 1014.3 -- 76
2020-10-15 18:00:00 23.9 10 Sudeste 21 Sudeste 0 1014.3 -- 73
2020-10-15 17:00:00 23.5 9 Este 21 Sudeste 0 1014.3 -0.9 75
2020-10-15 16:00:00 23.7 15 Sudeste 28 Sudeste 0 1014.6 -- 75
2020-10-15 15:00:00 24 18 Sudeste 28 Sudeste 0 1014.9 -- 73
2020-10-15 14:00:00 24.4 21 Sudeste 30 Sudeste 0 1015.2 -- 71
2020-10-15 13:00:00 24.8 23 Sudeste 32 Sudeste 0 1015.7 -- 70
2020-10-15 12:00:00 24.7 24 Sudeste 37 Sudeste 0 1016 -- 71
2020-10-15 11:00:00 24.5 23 Sudeste 30 Sudeste 0 1015.8 -- 71
2020-10-15 10:00:00 23.8 10 Sudeste 17 Nordeste 0 1015.5 -- 73
2020-10-15 09:00:00 22.8 14 Nordeste 24 Nordeste 0 1015 -- 78
2020-10-15 08:00:00 22.6 19 Nordeste 28 Nordeste 0 1014.9 -- 80
2020-10-15 07:00:00 22.7 22 Norte 28 Norte 0 1015 -- 83
2020-10-15 06:00:00 22.8 3 Norte 15 Sur 0 1014.7 -- 80
2020-10-15 05:00:00 22.4 11 Sur 21 Sudeste 0 1014.1 -- 81
2020-10-15 04:00:00 22.7 14 Sudeste 30 Sudeste 0 1014.1 -- 83
2020-10-15 03:00:00 23.3 23 Sur 37 Sur 0 1014.3 -- 77
2020-10-15 02:00:00 22.9 28 Sur 37 Sur 0 1014.3 -- 80
2020-10-15 01:00:00 22.5 5 Sur 22 Nordeste 0 1015 -- 83
2020-10-15 00:00:00 23.1 17 Nordeste 28 Nordeste 0 1015.5 -- 82
2020-10-14 23:00:00 23 17 Norte 28 Norte 0 1015.8 -- 82
2020-10-14 22:00:00 23.1 23 Nordeste 33 Norte 0 1015.5 -- 81
2020-10-14 21:00:00 23.2 26 Norte 35 Norte 0 1015 -- 80
2020-10-14 20:00:00 23.3 25 Nordeste 35 Nordeste 0 1014.4 -- 80
2020-10-14 19:00:00 23.6 26 Nordeste 33 Nordeste 0 1013.9 -- 82
2020-10-14 18:00:00 23.4 11 Este 18 Este 0 1014 -- 83
2020-10-14 17:00:00 24.1 14 Este 18 Este 0 1013.7 -- 79
2020-10-14 16:00:00 24 8 Este 11 Este 0 1013.5 -- 85
2020-10-14 15:00:00 24.1 5 Nordeste 9 Nordeste 0 1013.8 -- 83
2020-10-14 14:00:00 24.1 6 Este 17 Este 0 1014.5 -- 81
2020-10-14 13:00:00 24.2 11 Este 24 Este 0 1014.7 -- 80
2020-10-14 12:00:00 26.5 18 Sudeste 39 Sur 0 1014.7 -- 61
2020-10-14 11:00:00 27.8 24 Sur 37 Sudoeste 0 1014.9 -- 33
2020-10-14 10:00:00 25.7 26 Sudeste 33 Sur 0 1014.6 -- 55
2020-10-14 09:00:00 23.8 24 Sudeste 33 Sur 0 1014.1 -- 70
2020-10-14 08:00:00 22.7 15 Sur 24 Sur 0 1014.1 -- 83
2020-10-14 07:00:00 24.3 17 Sur 35 Sur 0 1013.6 -- 59
2020-10-14 06:00:00 23.7 28 Sur 42 Sur 0 1013.7 -- 75
2020-10-14 05:00:00 24 32 Sur 46 Sur 0 1013.9 -- 67
2020-10-14 04:00:00 25.8 30 Sur 48 Sur 0 1013.5 -- 34
2020-10-14 03:00:00 23.3 8 Sur 15 Norte 0 1014 -- 81
2020-10-14 02:00:00 23.6 4 Noroeste 21 Noroeste 0 1014.5 -- 81
2020-10-14 01:00:00 23.6 8 Noroeste 18 Norte 0 1014.5 -- 84
2020-10-14 00:00:00 23.7 6 Noroeste 21 Norte 0 1014.7 -- 84
2020-10-13 23:00:00 23.8 9 Norte 18 Norte 0 1014.5 -- 85
2020-10-13 22:00:00 24.1 14 Noroeste 24 Oeste 0 1013.9 -- 85
2020-10-13 21:00:00 24.4 14 Noroeste 21 Noroeste 0 1013.2 -- 85
2020-10-13 20:00:00 25.7 6 Norte 11 Norte 0 1012.5 -- 71
2020-10-13 19:00:00 25.2 4 Este 15 Este 0 1011.9 -- 75
2020-10-13 18:00:00 24.8 9 Este 30 Sudeste 0 1011.4 -- 79
2020-10-13 17:00:00 30 14 Sur 39 Sur 0 1011.4 -- 30
2020-10-13 16:00:00 30.1 17 Sur 37 Sur 0 1011.6 -- 32
2020-10-13 15:00:00 29.5 17 Sudeste 45 Sur 0 1012.2 -- 36
2020-10-13 14:00:00 29 15 Sur 42 Sur 0 1012.6 -- 38
2020-10-13 13:00:00 29.7 19 Sudeste 41 Sudeste 0 1013.4 -- 36
2020-10-13 12:00:00 29.4 22 Sur 39 Sur 0 1013.4 -- 37
2020-10-13 11:00:00 28.2 24 Sudeste 33 Sur 0 1013.5 1.2 43
2020-10-13 10:00:00 26.1 26 Sudeste 33 Sur 0 1013.1 -- 58
2020-10-13 09:00:00 26 25 Sur 42 Sudeste 0 1012.2 1.2 54
2020-10-13 08:00:00 26.8 34 Sur 50 Sudeste 0 1012.3 -- 43
2020-10-13 07:00:00 22.7 13 Sudeste 17 Sudeste 0 1011.3 -- 89
2020-10-13 06:00:00 22.8 6 Sudoeste 13 Sudoeste 0 1011 -- 87
2020-10-13 05:00:00 22.5 7 Oeste 13 Oeste 0 1010.9 -0.9 88
2020-10-13 04:00:00 23 7 Oeste 13 Oeste 0 1010.9 -- 86
2020-10-13 03:00:00 -- -- -- -- -- -- -- -- --
2020-10-13 02:00:00 23.4 6 Noroeste 15 Oeste 0 1011.8 -0.8 87
2020-10-13 01:00:00 23.5 12 Oeste 18 Noroeste 0 1012.1 -- 86
2020-10-13 00:00:00 -- -- -- -- -- -- -- -- --
2020-10-12 23:00:00 23.6 10 Noroeste 21 Noroeste 0 1012.6 1.1 88
2020-10-12 22:00:00 23.6 8 Noroeste 21 Noroeste 0 1012.3 -- 87
2020-10-12 21:00:00 23.7 11 Noroeste 21 Noroeste 0 1011.8 0.5 87
2020-10-12 20:00:00 23.8 9 Noroeste 21 Noroeste 0 1011.5 -- 86
2020-10-12 19:00:00 24.1 8 Norte 15 Norte 0 1011.4 -0.2 85
2020-10-12 18:00:00 24.6 8 Noroeste 22 Norte 0 1011.3 -- 83
2020-10-12 17:00:00 24.5 11 Norte 22 Norte 0 1011.2 -1.3 82
2020-10-12 16:00:00 24.5 15 Norte 24 Norte 0 1011.6 -- 82
2020-10-12 15:00:00 24.9 16 Norte 30 Norte 0 1012.1 -- 80
2020-10-12 14:00:00 25 18 Norte 26 Norte 0 1012.5 -1.2 79
2020-10-12 13:00:00 24.9 17 Norte 35 Norte 0 1013 -- 79
2020-10-12 12:00:00 24.4 21 Norte 30 Nordeste 0 1013.5 0.9 80
2020-10-12 11:00:00 24.2 15 Norte 32 Nordeste 0 1013.7 -- 81
2020-10-12 10:00:00 23.6 23 Norte 35 Norte 0 1013.3 -- 83
2020-10-12 09:00:00 23 24 Norte 35 Nordeste 0 1012.6 -- 84
2020-10-12 08:00:00 22.9 19 Norte 35 Nordeste 0 1012.3 -- 85
2020-10-12 07:00:00 22.8 26 Norte 39 Norte 0 1011.9 0.1 84
2020-10-12 06:00:00 22.8 15 Noroeste 37 Nordeste 0 1012.2 -- 83
2020-10-12 05:00:00 22.9 13 Norte 42 Norte 0 1012.1 -0.4 82
2020-10-12 04:00:00 23 31 Norte 45 Norte 0 1011.8 -- 81
2020-10-12 03:00:00 -- -- -- -- -- -- -- -- --
2020-10-12 02:00:00 23.1 32 Norte 46 Norte 0 1012.5 -- 82
2020-10-12 01:00:00 23.1 25 Norte 42 Norte 0 1013.1 -0.2 80
2020-10-12 00:00:00 23.1 31 Norte 46 Norte 0 1013.3 -- 80
2020-10-11 23:00:00 23.2 30 Norte 50 Norte 0 1013.5 -- 81
2020-10-11 22:00:00 23.1 31 Norte 46 Norte 0 1013.3 0.5 83
2020-10-11 21:00:00 23.2 29 Norte 42 Norte 0 1013.2 -- 82
2020-10-11 20:00:00 -- -- -- -- -- -- -- -- --
2020-10-11 19:00:00 -- -- -- -- -- -- -- -- --
2020-10-11 18:00:00 23.5 27 Norte 42 Norte 0 1012.8 -- 80
2020-10-11 17:00:00 23.6 32 Norte 42 Norte 0 1013 -2 79
2020-10-11 16:00:00 24 23 Norte 42 Norte 0 1013.5 -- 76
2020-10-11 15:00:00 24.4 23 Norte 35 Norte 0 1014.2 -- 73
2020-10-11 14:00:00 24.6 18 Norte 35 Norte 0 1015 -- 73
2020-10-11 13:00:00 24.6 26 Norte 37 Norte 0 1015.6 -- 72
2020-10-11 12:00:00 24.7 27 Norte 37 Norte 0 1015.7 -- 73
2020-10-11 11:00:00 24.1 24 Norte 32 Norte 0 1015.6 -- 72
2020-10-11 10:00:00 23.7 17 Nordeste 41 Nordeste 0 1015.6 -- 75
2020-10-11 09:00:00 23.2 32 Norte 45 Nordeste 0 1015 -- 78
2020-10-11 08:00:00 23.3 28 Norte 39 Norte 0 1014.6 -- 74
2020-10-11 07:00:00 23.1 33 Norte 46 Norte 0 1014.4 -- 77
2020-10-11 06:00:00 23 26 Norte 39 Norte 0 1014.2 -- 75
2020-10-11 05:00:00 22.9 26 Norte 37 Norte 0 1014.2 -- 79
2020-10-11 04:00:00 22.9 27 Norte 42 Norte 0 1014.5 -- 79
2020-10-11 03:00:00 22.9 30 Norte 42 Norte 0 1014.9 -- 79
2020-10-11 02:00:00 23 30 Norte 45 Norte 0 1015.3 -- 79
2020-10-11 01:00:00 23 27 Norte 41 Norte 0 1015.7 -- 80
2020-10-11 00:00:00 23.1 25 Norte 39 Norte 0 1016.3 -- 80
2020-10-10 23:00:00 23 21 Norte 35 Norte 0 1016.1 -- 78
2020-10-10 22:00:00 23 25 Norte 37 Norte 0 1016.1 -- 78
2020-10-10 21:00:00 23.1 26 Norte 39 Norte 0 1015.5 -- 77
2020-10-10 20:00:00 23.2 24 Norte 37 Norte 0 1015.3 -- 78
2020-10-10 19:00:00 23.4 27 Norte 37 Norte 0 1015.2 -- 75
2020-10-10 18:00:00 23.6 22 Norte 32 Norte 0 1015.1 -- 76
2020-10-10 17:00:00 23.9 21 Norte 33 Norte 0 1015.3 -- 73
2020-10-10 16:00:00 24.5 24 Norte 32 Norte 0 1015.6 -- 71
2020-10-10 15:00:00 24.9 24 Norte 32 Norte 0 1016 -- 70
2020-10-10 14:00:00 25.1 21 Norte 28 Norte 0 1016.7 -- 69
2020-10-10 13:00:00 24.6 20 Norte 28 Norte 0 1017.6 -- 72
2020-10-10 12:00:00 24.6 19 Norte 32 Nordeste 0 1018 -- 71
2020-10-10 11:00:00 24.1 24 Norte 41 Norte 0 1017.9 -- 73
2020-10-10 10:00:00 23.8 29 Norte 39 Norte 0 1017.3 -- 73
2020-10-10 09:00:00 23.3 21 Norte 30 Norte 0 1017.1 -- 76
2020-10-10 08:00:00 22.8 23 Norte 37 Norte 0 1016.7 -- 78
2020-10-10 07:00:00 23 31 Norte 41 Norte 0 1016.3 -- 79
2020-10-10 06:00:00 23 31 Norte 39 Norte 0 1016.3 -- 80
2020-10-10 05:00:00 23 27 Norte 41 Norte 0 1016.1 -- 78
2020-10-10 04:00:00 22.8 24 Noroeste 35 Norte 0 1016.3 -- 78
2020-10-10 03:00:00 23 26 Norte 42 Norte 0 1017.1 -- 78
2020-10-10 02:00:00 23 31 Norte 39 Norte 0 1017.4 -- 80
2020-10-10 01:00:00 23 26 Norte 33 Norte 0 1017.4 -- 79
2020-10-10 00:00:00 23 22 Norte 35 Norte 0 1018 -- 79
2020-10-09 23:00:00 23.3 26 Norte 42 Norte 0 1018.3 -- 78
2020-10-09 22:00:00 23.3 33 Norte 42 Norte 0 1018.1 -- 77
2020-10-09 21:00:00 23.4 28 Norte 37 Norte 0 1017.9 -- 76
2020-10-09 20:00:00 23.6 20 Norte 35 Noroeste 0 1017.7 -- 77
2020-10-09 19:00:00 24 24 Noroeste 37 Norte 0 1017.6 -- 74
2020-10-09 18:00:00 24.5 25 Noroeste 41 Norte 0 1017.3 -- 75
2020-10-09 17:00:00 24.2 26 Norte 33 Norte 0 1017.4 -- 75
2020-10-09 16:00:00 24.6 23 Norte 35 Norte 0 1017.6 -- 72
2020-10-09 15:00:00 25.1 18 Norte 26 Norte 0 1017.8 -- 70
2020-10-09 14:00:00 25.2 17 Norte 26 Norte 0 1018.5 -- 76
2020-10-09 13:00:00 25.2 16 Norte 28 Norte 0 1019.1 -- 73
2020-10-09 12:00:00 24.6 19 Norte 30 Norte 0 1019.1 -- 79
2020-10-09 11:00:00 24.5 21 Norte 33 Norte 0 1018.6 -- 78
2020-10-09 10:00:00 24 22 Noroeste 32 Noroeste 0 1018.1 -- 78
2020-10-09 09:00:00 23.5 26 Noroeste 37 Norte 0 1017.3 -- 79
2020-10-09 08:00:00 23.3 23 Noroeste 35 Noroeste 0 1017.3 -- 79
2020-10-09 07:00:00 23.4 23 Noroeste 35 Norte 0 1017.3 -- 77
2020-10-09 06:00:00 23.4 24 Norte 35 Norte 0 1017.1 -- 79
2020-10-09 05:00:00 23.3 24 Norte 35 Norte 0 1017 -- 78
2020-10-09 04:00:00 23.3 24 Norte 35 Noroeste 0 1017.1 -- 80
2020-10-09 03:00:00 23.2 20 Norte 30 Norte 0 1017.7 -- 82
2020-10-09 02:00:00 23.2 22 Norte 30 Norte 0 1017.9 -- 81
2020-10-09 01:00:00 23.1 21 Noroeste 28 Noroeste 0 1017.8 -- 81
2020-10-09 00:00:00 23 20 Noroeste 35 Norte 0 1018.1 -- 81
2020-10-08 23:00:00 23.1 28 Norte 37 Norte 0 1018.1 -- 82
2020-10-08 22:00:00 23.2 24 Norte 32 Norte 0 1017.9 -- 82
2020-10-08 21:00:00 23.2 22 Noroeste 32 Norte 0 1017.6 -- 83
2020-10-08 20:00:00 23.4 24 Norte 30 Norte 0 1017.1 -- 82
2020-10-08 19:00:00 23.5 22 Norte 30 Norte 0 1016.8 -- 83
2020-10-08 18:00:00 23.7 20 Norte 30 Nordeste 0 1016.9 -- 82
2020-10-08 17:00:00 24.3 16 Norte 26 Norte 0 1016.6 -- 78
2020-10-08 16:00:00 24.7 20 Norte 28 Noroeste 0 1016.7 -- 74
2020-10-08 15:00:00 24.6 21 Norte 28 Norte 0 1017 -- 75
2020-10-08 14:00:00 24.9 19 Norte 26 Norte 0 1017.6 -- 74
2020-10-08 13:00:00 24.9 20 Norte 30 Norte 0 1018 -- 73
2020-10-08 12:00:00 24.6 21 Norte 28 Norte 0 1017.9 -- 74
2020-10-08 11:00:00 24.2 18 Norte 26 Norte 0 1017.9 -- 77
2020-10-08 10:00:00 23.6 17 Norte 26 Norte 0 1017.5 -- 79
2020-10-08 09:00:00 22.9 18 Noroeste 24 Norte 0 1016.8 -- 82
2020-10-08 08:00:00 22.4 15 Noroeste 26 Noroeste 0 1016.3 -- 83
2020-10-08 07:00:00 22.5 22 Noroeste 28 Noroeste 0 1016.2 -- 83
2020-10-08 06:00:00 22.7 21 Noroeste 30 Noroeste 0 1015.9 -- 83
2020-10-08 05:00:00 22.6 20 Noroeste 28 Noroeste 0 1016 -- 84
2020-10-08 04:00:00 22.8 23 Norte 33 Norte 0 1015.9 -- 85
2020-10-08 03:00:00 22.9 25 Norte 33 Norte 0 1016.1 -- 85
2020-10-08 02:00:00 23 24 Norte 37 Noroeste 0 1016.5 -- 86
2020-10-08 01:00:00 23.5 22 Noroeste 33 Noroeste 0 1017 -- 81
2020-10-08 00:00:00 23.4 21 Noroeste 30 Noroeste 0 1017.3 -- 82
2020-10-07 23:00:00 23.3 18 Noroeste 28 Noroeste 0 1017.3 -- 82
2020-10-07 22:00:00 23.4 16 Noroeste 24 Noroeste 0 1017 -- 78
2020-10-07 21:00:00 23.3 17 Norte 26 Norte 0 1016.5 -- 85
2020-10-07 20:00:00 23.5 15 Norte 24 Norte 0 1016.2 -- 85
2020-10-07 19:00:00 24 14 Norte 18 Norte 0 1015.8 -- 82
2020-10-07 18:00:00 24.3 12 Norte 17 Norte 0 1015.8 -- 81
2020-10-07 17:00:00 24.8 13 Norte 21 Norte 0 1015.6 -- 80
2020-10-07 16:00:00 24.9 18 Norte 22 Norte 0 1015.6 -- 79
2020-10-07 15:00:00 24.9 18 Norte 24 Norte 0 1016 -- 77
2020-10-07 14:00:00 25.1 15 Norte 24 Norte 0 1016.5 -- 75
2020-10-07 13:00:00 25.5 13 Norte 18 Norte 0 1017.1 -- 75
2020-10-07 12:00:00 25.1 13 Norte 18 Norte 0 1017 -- 76
2020-10-07 11:00:00 24.5 12 Norte 18 Norte 0 1017 -- 79
2020-10-07 10:00:00 23.4 10 Norte 21 Noroeste 0 1016.8 -- 83
2020-10-07 09:00:00 23 14 Norte 22 Noroeste 0 1016 -- 84
2020-10-07 08:00:00 22.7 16 Noroeste 22 Noroeste 0 1015.6 -- 84
2020-10-07 07:00:00 22.9 14 Norte 22 Norte 0 1015.6 -- 84
2020-10-07 06:00:00 22.8 15 Noroeste 24 Norte 0 1015.2 -- 84
2020-10-07 05:00:00 22.9 16 Norte 24 Norte 0 1015.3 -- 84
2020-10-07 04:00:00 22.9 18 Noroeste 24 Norte 0 1015.4 -- 84
2020-10-07 03:00:00 23 15 Norte 22 Norte 0 1015.6 -- 84
2020-10-07 02:00:00 22.9 15 Norte 24 Norte 0 1015.9 -- 85
2020-10-07 01:00:00 23 9 Norte 13 Norte 0 1016.6 -- 84
2020-10-07 00:00:00 23 10 Nordeste 18 Norte 0 1016.8 -- 83
2020-10-06 23:00:00 22.9 15 Norte 24 Nordeste 0 1016.9 -- 83
2020-10-06 22:00:00 23 19 Norte 28 Norte 0 1016.6 -- 82
2020-10-06 21:00:00 22.9 14 Norte 26 Norte 0 1016.4 -- 82
2020-10-06 20:00:00 22.7 18 Norte 28 Norte 0 1016.4 -- 84
2020-10-06 19:00:00 22.8 19 Norte 30 Norte 0 1016.3 -- 85
2020-10-06 18:00:00 22.8 21 Norte 28 Norte 0 1016 -- 86
2020-10-06 17:00:00 22.6 23 Norte 28 Nordeste 0 1015.9 -- 85
2020-10-06 16:00:00 22.4 13 Nordeste 18 Sudeste 0 1016.4 -- 84
2020-10-06 15:00:00 23.1 15 Sudeste 22 Sudeste 0 1016.9 -- 81
2020-10-06 14:00:00 23.5 4 Norte 28 Nordeste 0 1017.3 -- 77
2020-10-06 13:00:00 23 23 Nordeste 33 Nordeste 0 1017.7 -- 80
2020-10-06 12:00:00 22.8 19 Nordeste 30 Nordeste 0 1017.8 -- 81
2020-10-06 11:00:00 22.3 22 Nordeste 33 Nordeste 0 1017.5 -- 83
2020-10-06 10:00:00 21.7 5 Oeste 21 Nordeste 0.4 1016.9 -- 81
2020-10-06 09:00:00 22.2 13 Nordeste 37 Nordeste 1.1 1016.2 -- 81
2020-10-06 08:00:00 22.2 32 Nordeste 42 Nordeste 0.5 1015.4 -- 86
2020-10-06 07:00:00 22.9 22 Nordeste 30 Nordeste 0 1015.4 -- 84
2020-10-06 06:00:00 23.1 8 Este 22 Este 0 1015.3 -- 79
2020-10-06 05:00:00 23 13 Este 22 Este 0 1015.6 -- 80
2020-10-06 04:00:00 22.8 8 Sudeste 15 Oeste 0 1015.7 -- 78
2020-10-06 03:00:00 22.9 9 Norte 13 Oeste 0 1016 -- 80
2020-10-06 02:00:00 22.4 5 Sur 13 Este 0 1016.9 -- 82
2020-10-06 01:00:00 22.9 8 Este 13 Este 0 1017.1 -- 80
2020-10-06 00:00:00 22.9 5 Este 15 Sudeste 0 1017.1 -- 79
2020-10-05 23:00:00 23 10 Sudeste 21 Sudeste 0 1017.2 -- 78
2020-10-05 22:00:00 22.8 13 Este 22 Este 0 1016.9 -- 82
2020-10-05 21:00:00 23.2 16 Este 26 Este 0.2 1016.6 -- 79
2020-10-05 20:00:00 23.1 18 Este 28 Este 0 1016 -- 80
2020-10-05 19:00:00 23.5 13 Este 21 Sudeste 0 1015.9 -- 77
2020-10-05 18:00:00 23.6 16 Sudeste 24 Sudeste 0 1015.8 -- 74
2020-10-05 17:00:00 24.1 17 Sudeste 28 Sudeste 0 1015.5 -- 75
2020-10-05 16:00:00 24 20 Este 33 Este 0 1015.3 -- 73
2020-10-05 15:00:00 24.5 17 Este 22 Sudeste 0 1015.2 -- 73
2020-10-05 14:00:00 25.2 12 Norte 21 Norte 0 1015.5 -0.2 70
2020-10-05 13:00:00 25.3 12 Norte 18 Norte 0 1016.4 0.8 72
2020-10-05 12:00:00 25.1 11 Norte 24 Norte 0 1016.4 1.6 73
2020-10-05 11:00:00 24.2 18 Norte 26 Norte 0 1015.7 -- 75
2020-10-05 10:00:00 23.7 20 Norte 30 Norte 0 1015.6 -- 78
2020-10-05 09:00:00 23.2 20 Norte 32 Nordeste 0 1014.8 -- 80
2020-10-05 08:00:00 22.9 26 Nordeste 33 Norte 0 1014.3 -- 79
2020-10-05 07:00:00 22.9 23 Nordeste 32 Nordeste 0 1014 -- 81
2020-10-05 06:00:00 22.8 26 Norte 33 Nordeste 0 1013.6 -- 81
2020-10-05 05:00:00 22.9 24 Norte 32 Norte 0 1013.6 -- 80
2020-10-05 04:00:00 22.9 23 Norte 32 Nordeste 0.1 1013.7 -- 80
2020-10-05 03:00:00 22.4 9 Este 39 Nordeste 0 1014.3 -- 83
2020-10-05 02:00:00 22.9 12 Sur 30 Nordeste 0 1014.5 -- 78
2020-10-05 01:00:00 23.3 22 Nordeste 45 Nordeste 0 1014.3 -- 80
2020-10-05 00:00:00 23.3 27 Nordeste 37 Nordeste 0 1014.6 -- 78
2020-10-04 23:00:00 23 18 Norte 30 Nordeste 0 1015 -- 81
2020-10-04 22:00:00 23 24 Norte 37 Norte 0 1014.6 -- 81
2020-10-04 21:00:00 23.1 30 Norte 41 Norte 0 1013.8 -- 81
2020-10-04 20:00:00 23.3 31 Norte 39 Norte 0 1013.1 -- 79
2020-10-04 19:00:00 23.3 30 Norte 46 Norte 0 1012.8 -- 80
2020-10-04 18:00:00 23.5 32 Norte 42 Norte 0 1012.4 -- 78
2020-10-04 17:00:00 23.6 31 Norte 41 Norte 0 1012.9 -- 80
2020-10-04 16:00:00 24.2 32 Norte 41 Norte 0 1012.7 -- 78
2020-10-04 15:00:00 24.5 26 Norte 41 Norte 0 1013.4 -- 76
2020-10-04 14:00:00 24.5 33 Norte 45 Norte 0 1013.4 -- 76
2020-10-04 13:00:00 24.5 24 Norte 32 Norte 0 1014 -- 77
2020-10-04 12:00:00 24.4 18 Noroeste 32 Norte 0 1014.2 -- 78
2020-10-04 11:00:00 23.9 22 Norte 39 Norte 0.1 1013.9 -- 85
2020-10-04 10:00:00 22.6 23 Norte 30 Norte 0 1013.9 -- 89
2020-10-04 09:00:00 23 22 Norte 28 Norte 0 1013.1 -- 86
2020-10-04 08:00:00 22.6 18 Norte 30 Norte 0 1012.5 -- 86
2020-10-04 07:00:00 22.9 30 Norte 37 Norte 0 1011.7 -- 84
2020-10-04 06:00:00 22.4 18 Noroeste 42 Norte 0 1011.3 -- 87
2020-10-04 05:00:00 22.4 42 Norte 48 Norte 0 1011 -- 87
2020-10-04 04:00:00 22.2 28 Norte 46 Norte 0 1011.3 -- 89
2020-10-04 03:00:00 23 29 Norte 41 Norte 0 1011.3 -- 80
2020-10-04 02:00:00 22.7 33 Norte 41 Norte 0 1011.9 -- 83
2020-10-04 01:00:00 23.2 31 Norte 41 Norte 0 1012.2 -- 81
2020-10-04 00:00:00 23 29 Norte 39 Norte 0 1012.7 -- 82
2020-10-03 23:00:00 22.6 29 Norte 39 Nordeste 0 1012.7 -- 86
2020-10-03 22:00:00 22.9 26 Norte 45 Norte 0 1012.4 -- 83
2020-10-03 21:00:00 22.6 21 Norte 41 Norte 0 1012 -- 85
2020-10-03 20:00:00 23.1 27 Norte 39 Norte 0 1011.7 -- 83
2020-10-03 19:00:00 23.4 27 Norte 42 Noroeste 0.1 1011.5 -- 82
2020-10-03 18:00:00 21.8 31 Norte 50 Norte 0.2 1011.8 -- 88
2020-10-03 17:00:00 22.6 19 Norte 46 Nordeste 0.1 1012 -- 86
2020-10-03 16:00:00 22.7 24 Norte 42 Norte 0 1012.3 -- 83
2020-10-03 15:00:00 24.1 23 Noroeste 48 Norte 0 1012.6 -- 77
2020-10-03 14:00:00 24.3 25 Norte 48 Norte 0 1013.2 -- 75
2020-10-03 13:00:00 24.7 23 Norte 37 Norte 0 1013.5 -- 70
2020-10-03 12:00:00 24.1 29 Norte 42 Norte 0 1013.8 -- 75
2020-10-03 11:00:00 22.9 36 Norte 45 Norte 0 1013.8 -- 80
2020-10-03 10:00:00 24 28 Norte 39 Norte 0 1013.3 -- 69
2020-10-03 09:00:00 23.5 26 Norte 39 Norte 0 1012.7 -- 73
2020-10-03 08:00:00 23.3 25 Norte 42 Norte 0 1012.7 -- 69
2020-10-03 07:00:00 23.3 32 Norte 41 Norte 0 1012.4 -- 69
2020-10-03 06:00:00 23 32 Norte 42 Norte 0 1012.2 -- 72
2020-10-03 05:00:00 23.1 27 Norte 35 Norte 0 1012.3 -- 75
2020-10-03 04:00:00 23 25 Norte 42 Norte 0 1012.8 -- 70
2020-10-03 03:00:00 23.1 36 Norte 46 Norte 0 1013.1 -- 73
2020-10-03 02:00:00 23.2 31 Norte 41 Norte 0 1013.6 -- 78
2020-10-03 01:00:00 23.3 31 Norte 41 Norte 0 1014.1 -- 78
2020-10-03 00:00:00 23.4 31 Norte 42 Norte 0 1014.3 -- 78
2020-10-02 23:00:00 23.2 29 Norte 46 Norte 0 1014.1 -- 80
2020-10-02 22:00:00 23.2 39 Norte 48 Norte 0 1013.9 -- 80
2020-10-02 21:00:00 22.5 23 Noroeste 46 Norte 0 1013.5 -- 82
2020-10-02 20:00:00 23.2 27 Norte 42 Norte 0 1013.3 -- 78
2020-10-02 19:00:00 22.7 24 Norte 42 Norte 0 1013.4 -- 81
2020-10-02 18:00:00 23.5 33 Norte 46 Norte 0 1013.3 -- 75
2020-10-02 17:00:00 24.2 27 Norte 37 Norte 0 1013.1 -- 67
2020-10-02 16:00:00 24.6 29 Norte 39 Norte 0 1013.5 -- 61
2020-10-02 15:00:00 25 27 Norte 42 Norte 0 1013.9 -- 59
2020-10-02 14:00:00 24.6 32 Norte 41 Norte 0 1014.5 -- 62
2020-10-02 13:00:00 24 31 Norte 37 Norte 0 1015 -- 68
2020-10-02 12:00:00 23.4 24 Norte 35 Nordeste 0 1015.5 -- 74
2020-10-02 11:00:00 23.3 37 Nordeste 48 Nordeste 0 1015.2 -- 72
2020-10-02 10:00:00 23.7 28 Norte 37 Norte 0 1014.6 -- 66
2020-10-02 09:00:00 23.2 31 Norte 45 Norte 0 1014 -- 63
2020-10-02 08:00:00 23.1 30 Norte 42 Norte 0 1013.6 -- 65
2020-10-02 07:00:00 23 31 Norte 42 Norte 0 1013.4 -- 68
2020-10-02 06:00:00 22.9 34 Norte 42 Norte 0 1013.3 -- 74
2020-10-02 05:00:00 22.8 33 Norte 45 Norte 0 1013.7 -- 74
2020-10-02 04:00:00 23 35 Norte 45 Norte 0 1014.1 -- 77
2020-10-02 03:00:00 23.2 33 Norte 42 Norte 0 1014.7 -- 77
2020-10-02 02:00:00 23.1 29 Norte 42 Norte 0 1015 -- 79
2020-10-02 01:00:00 23.2 32 Norte 46 Norte 0 1015.4 -- 77
2020-10-02 00:00:00 23.3 32 Norte 41 Norte 0 1015.8 -- 78
2020-10-01 23:00:00 23.6 31 Norte 45 Norte 0 1015.5 -- 69
2020-10-01 22:00:00 23.3 30 Norte 41 Norte 0 1015.2 -- 77
2020-10-01 21:00:00 23.2 32 Norte 41 Norte 0 1014.8 -- 76
2020-10-01 20:00:00 23.4 32 Norte 42 Norte 0 1014.5 -- 76
2020-10-01 19:00:00 23.7 31 Norte 39 Norte 0 1014.3 -- 74
2020-10-01 18:00:00 23.9 28 Norte 37 Norte 0 1014.2 -- 74
2020-10-01 17:00:00 24.2 28 Norte 35 Norte 0 1014.3 -- 70
2020-10-01 16:00:00 24.3 29 Norte 41 Norte 0 1014.6 -- 67
2020-10-01 15:00:00 24.5 30 Norte 39 Norte 0 1015 -- 68
2020-10-01 14:00:00 25 28 Norte 35 Norte 0 1015.5 -- 69
2020-10-01 13:00:00 24.9 24 Norte 35 Norte 0 1016 -- 69
2020-10-01 12:00:00 24.4 26 Norte 32 Norte 0 1016.2 -- 70
2020-10-01 11:00:00 24 25 Norte 39 Norte 0 1016 -- 72
2020-10-01 10:00:00 23.6 28 Norte 35 Norte 0 1015.4 -- 76
2020-10-01 09:00:00 23.2 22 Norte 37 Norte 0 1014.9 -- 74
2020-10-01 08:00:00 22.9 28 Norte 41 Norte 0 1014.6 -- 75
2020-10-01 07:00:00 23.2 28 Nordeste 41 Nordeste 0 1014.5 -- 77
2020-10-01 06:00:00 23.1 31 Norte 42 Norte 0 1014.4 -- 76
2020-10-01 05:00:00 23.1 31 Norte 39 Norte 0 1014.5 -- 77
2020-10-01 04:00:00 22.9 21 Norte 33 Norte 0 1014.9 -- 75
2020-10-01 03:00:00 22.9 31 Norte 42 Norte 0 1015.1 -- 75
2020-10-01 02:00:00 23 31 Norte 39 Nordeste 0 1015.5 -- 78
2020-10-01 01:00:00 23.1 22 Norte 32 Norte 0 1015.9 -- 76
2020-10-01 00:00:00 23.1 25 Norte 32 Norte 0 1016.2 -- 76